Time;durP1;ratioP1;P1;durP2;ratioP2;P2;SDS_P1;SDS_P2;PMS_P1;PMS_P2;Temp;Humidity;BMP_temperature;BMP_pressure;BME280_temperature;BME280_humidity;BME280_pressure;Samples;Min_cycle;Max_cycle;Signal;HPM_P1;HPM_P2
2021/10/13 00:02:09;;;;;;;11.57;10.27;;;9.80;99.90;;;;;;4952539;28;20204;-55
2021/10/13 00:04:35;;;;;;;10.60;9.55;;;9.80;99.90;;;;;;4955252;28;20284;-55
2021/10/13 00:07:01;;;;;;;10.27;8.83;;;9.70;99.90;;;;;;4955321;28;20684;-55
2021/10/13 00:09:26;;;;;;;10.40;9.40;;;10.00;99.90;;;;;;4948882;28;20225;-55
2021/10/13 00:11:52;;;;;;;10.97;9.87;;;10.00;99.90;;;;;;4967963;28;20196;-55
2021/10/13 00:14:18;;;;;;;10.60;9.30;;;10.00;99.90;;;;;;4956115;28;20768;-55
2021/10/13 00:16:52;;;;;;;10.47;9.37;;;9.90;99.90;;;;;;4951383;28;20289;-55
2021/10/13 00:19:18;;;;;;;11.18;8.85;;;9.90;99.90;;;;;;4953625;28;20581;-55
2021/10/13 00:21:44;;;;;;;9.95;8.95;;;9.70;99.90;;;;;;4954569;28;20193;-55
2021/10/13 00:24:10;;;;;;;11.80;8.83;;;9.90;99.90;;;;;;4954428;28;20185;-55
2021/10/13 00:26:35;;;;;;;11.47;9.17;;;9.60;99.90;;;;;;4957051;28;20267;-55
2021/10/13 00:29:01;;;;;;;9.90;8.90;;;9.80;99.90;;;;;;4954503;28;20671;-55
2021/10/13 00:31:27;;;;;;;10.90;9.27;;;9.40;99.90;;;;;;4952195;28;20248;-55
2021/10/13 00:33:52;;;;;;;10.33;9.20;;;9.30;99.90;;;;;;4954852;28;20193;-55
2021/10/13 00:36:18;;;;;;;10.03;9.03;;;9.90;99.90;;;;;;4954743;28;20217;-55
2021/10/13 00:38:43;;;;;;;11.27;9.87;;;9.90;99.90;;;;;;4952834;28;20205;-55
2021/10/13 00:41:09;;;;;;;10.10;9.10;;;9.90;99.90;;;;;;4953006;28;20555;-55
2021/10/13 00:43:35;;;;;;;12.43;11.07;;;9.50;99.90;;;;;;4955636;28;20176;-55
2021/10/13 00:46:01;;;;;;;11.50;10.30;;;9.50;99.90;;;;;;4951335;28;20181;-55
2021/10/13 00:48:26;;;;;;;11.03;9.60;;;9.60;99.90;;;;;;4953416;28;20587;-55
2021/10/13 00:50:53;;;;;;;12.83;10.40;;;9.60;99.90;;;;;;4954344;28;20515;-55
2021/10/13 00:53:19;;;;;;;11.20;10.07;;;9.50;99.90;;;;;;4953620;28;20178;-55
2021/10/13 00:55:44;;;;;;;11.82;10.63;;;9.60;99.90;;;;;;4954113;28;20189;-55
2021/10/13 00:58:10;;;;;;;12.30;10.30;;;9.40;99.90;;;;;;4954738;28;20221;-55
2021/10/13 01:00:43;;;;;;;11.13;9.20;;;9.70;99.90;;;;;;4952641;28;20531;-55
2021/10/13 01:03:27;;;;;;;11.85;9.30;;;9.70;99.90;;;;;;4954070;28;20977;-55
2021/10/13 01:05:55;;;;;;;10.95;9.85;;;9.70;99.90;;;;;;4952165;28;20275;-55
2021/10/13 01:08:52;;;;;;;10.30;9.20;;;9.80;99.90;;;;;;4950724;28;20229;-55
2021/10/13 01:11:39;;;;;;;12.48;9.60;;;9.10;99.90;;;;;;4951328;28;20234;-55
2021/10/13 01:14:22;;;;;;;10.18;9.13;;;9.50;99.90;;;;;;4958121;28;20182;-55
2021/10/13 01:17:12;;;;;;;10.77;9.68;;;9.40;99.90;;;;;;4948835;28;20197;-55
2021/10/13 01:19:46;;;;;;;13.70;10.10;;;9.60;99.90;;;;;;4952320;28;20606;-55
2021/10/13 01:22:33;;;;;;;10.57;9.43;;;9.50;99.90;;;;;;4951249;28;20200;-55
2021/10/13 01:25:27;;;;;;;11.85;9.73;;;9.20;99.90;;;;;;4950878;28;20181;-55
2021/10/13 01:27:56;;;;;;;10.80;9.48;;;9.30;99.90;;;;;;4953129;28;20255;-55
2021/10/13 01:30:23;;;;;;;10.00;9.00;;;9.70;99.90;;;;;;4953837;28;20212;-54
2021/10/13 01:33:03;;;;;;;13.20;8.80;;;9.90;99.90;;;;;;4953747;28;20189;-54
2021/10/13 01:35:31;;;;;;;10.50;8.38;;;9.70;99.90;;;;;;4953424;28;20181;-54
2021/10/13 01:38:04;;;;;;;9.82;8.82;;;9.30;99.90;;;;;;4949089;28;21945;-54
2021/10/13 01:40:32;;;;;;;11.55;9.52;;;9.50;99.90;;;;;;4948172;28;21259;-54
2021/10/13 01:43:00;;;;;;;12.20;8.15;;;9.50;99.90;;;;;;4953687;28;20205;-54
2021/10/13 01:45:26;;;;;;;8.82;7.18;;;9.60;99.90;;;;;;4952522;28;20189;-54
2021/10/13 01:47:53;;;;;;;9.82;7.82;;;9.40;99.90;;;;;;4953088;28;20592;-54
2021/10/13 01:50:19;;;;;;;8.27;7.47;;;9.50;99.90;;;;;;4949940;28;20281;-54
2021/10/13 01:52:49;;;;;;;8.75;7.05;;;9.60;99.90;;;;;;4951042;28;20181;-55
2021/10/13 01:55:20;;;;;;;7.85;7.05;;;9.70;99.90;;;;;;4952021;28;20181;-54
2021/10/13 01:57:48;;;;;;;7.70;6.72;;;9.70;99.90;;;;;;4950595;28;20192;-54
2021/10/13 02:00:15;;;;;;;10.25;7.70;;;9.60;99.90;;;;;;4950479;28;20271;-55
2021/10/13 02:02:43;;;;;;;7.20;6.45;;;9.50;99.90;;;;;;4952727;28;20185;-55
2021/10/13 02:05:12;;;;;;;7.80;6.60;;;9.80;99.90;;;;;;4983426;28;20775;-54
2021/10/13 02:07:40;;;;;;;8.68;7.38;;;9.60;99.90;;;;;;4953369;28;20702;-55
2021/10/13 02:10:09;;;;;;;7.75;6.95;;;9.70;99.90;;;;;;4952235;28;20263;-54
2021/10/13 02:12:37;;;;;;;9.45;7.20;;;9.70;99.90;;;;;;4952038;28;20181;-55
2021/10/13 02:15:04;;;;;;;8.20;7.05;;;9.40;99.90;;;;;;4950744;28;20541;-55
2021/10/13 02:17:33;;;;;;;10.50;7.75;;;9.60;99.90;;;;;;4952655;28;20193;-55
2021/10/13 02:20:01;;;;;;;9.88;7.90;;;9.70;99.90;;;;;;4952200;28;20209;-55
2021/10/13 02:22:32;;;;;;;8.15;7.32;;;9.70;99.90;;;;;;4952893;28;20196;-55
2021/10/13 02:24:58;;;;;;;7.53;6.75;;;9.70;99.90;;;;;;4951769;28;20674;-55
2021/10/13 02:28:03;;;;;;;8.18;7.18;;;10.00;99.90;;;;;;4953372;28;20275;-55
2021/10/13 02:30:29;;;;;;;7.95;6.90;;;9.80;99.90;;;;;;4949427;28;20192;-54
2021/10/13 02:32:55;;;;;;;7.83;5.80;;;9.80;99.90;;;;;;4952712;28;20263;-54
2021/10/13 02:35:20;;;;;;;8.90;6.20;;;10.00;99.90;;;;;;4952453;28;20839;-55
2021/10/13 02:37:46;;;;;;;9.40;7.57;;;9.70;99.90;;;;;;4951253;28;20200;-55
2021/10/13 02:40:12;;;;;;;10.43;7.60;;;9.80;99.90;;;;;;4951314;28;20201;-55
2021/10/13 02:42:38;;;;;;;8.93;6.80;;;9.70;99.90;;;;;;4952277;28;20449;-55
2021/10/13 02:45:05;;;;;;;10.68;7.32;;;9.60;99.90;;;;;;4950190;28;20201;-55
2021/10/13 02:47:35;;;;;;;9.07;7.13;;;9.70;99.90;;;;;;4949298;28;20211;-55
2021/10/13 02:50:33;;;;;;;7.97;7.15;;;9.80;99.90;;;;;;4951995;28;20212;-54
2021/10/13 02:53:16;;;;;;;8.20;7.35;;;9.60;99.90;;;;;;4946813;28;20196;-55
2021/10/13 02:56:08;;;;;;;9.18;7.35;;;9.70;99.90;;;;;;4949589;28;20211;-55
2021/10/13 02:58:38;;;;;;;9.90;7.30;;;9.50;99.90;;;;;;4951196;28;20291;-55
2021/10/13 03:01:06;;;;;;;10.95;8.20;;;9.50;99.90;;;;;;4944679;28;20227;-55
2021/10/13 03:03:41;;;;;;;7.57;6.85;;;9.60;99.90;;;;;;4950948;28;20904;-55
2021/10/13 03:06:10;;;;;;;8.20;7.40;;;9.30;99.90;;;;;;4953201;28;20272;-55
2021/10/13 03:08:38;;;;;;;8.82;7.07;;;9.60;99.90;;;;;;4946880;28;20652;-55
2021/10/13 03:11:05;;;;;;;10.75;7.95;;;9.40;99.90;;;;;;4951202;28;20227;-55
2021/10/13 03:13:37;;;;;;;9.13;8.23;;;9.50;99.90;;;;;;4952294;28;21388;-55
2021/10/13 03:16:04;;;;;;;8.90;7.30;;;9.50;99.90;;;;;;4944674;28;20268;-56
2021/10/13 03:18:34;;;;;;;8.82;7.93;;;9.30;99.90;;;;;;4950183;28;20236;-55
2021/10/13 03:21:00;;;;;;;7.88;7.07;;;9.60;99.90;;;;;;4951092;28;20189;-55
2021/10/13 03:23:27;;;;;;;8.50;7.17;;;9.50;99.90;;;;;;4952261;28;20196;-55
2021/10/13 03:25:53;;;;;;;10.15;8.32;;;9.50;99.90;;;;;;4961109;28;20211;-55
2021/10/13 03:28:19;;;;;;;9.60;8.30;;;9.40;99.90;;;;;;4958660;28;20758;-54
2021/10/13 03:30:45;;;;;;;9.47;8.30;;;9.50;99.90;;;;;;4947062;28;20185;-54
2021/10/13 03:33:16;;;;;;;10.48;7.40;;;9.70;99.90;;;;;;4951333;28;20682;-55
2021/10/13 03:35:42;;;;;;;10.43;7.47;;;9.30;99.90;;;;;;4946286;28;20614;-54
2021/10/13 03:38:09;;;;;;;9.60;8.20;;;9.70;99.90;;;;;;4951312;28;20199;-55
2021/10/13 03:40:36;;;;;;;11.80;8.20;;;9.50;99.90;;;;;;4950325;28;20200;-55
2021/10/13 03:43:02;;;;;;;10.38;7.70;;;9.30;99.90;;;;;;4949766;28;20610;-56
2021/10/13 03:45:28;;;;;;;10.23;7.85;;;9.00;99.90;;;;;;4952971;28;20193;-55
2021/10/13 03:47:54;;;;;;;12.33;9.23;;;9.40;99.90;;;;;;4951701;28;20701;-55
2021/10/13 03:50:21;;;;;;;10.00;8.20;;;9.10;99.90;;;;;;4952724;28;20181;-54
2021/10/13 03:52:47;;;;;;;7.90;7.10;;;9.40;99.90;;;;;;4952486;28;20210;-56
2021/10/13 03:55:15;;;;;;;9.98;8.30;;;9.50;99.90;;;;;;4944729;28;20225;-55
2021/10/13 03:57:42;;;;;;;10.23;7.78;;;9.50;99.90;;;;;;4950284;28;20283;-54
2021/10/13 04:00:10;;;;;;;11.45;7.55;;;9.40;99.90;;;;;;4951526;28;20288;-55
2021/10/13 04:02:36;;;;;;;10.73;8.18;;;9.30;99.90;;;;;;4948261;28;20225;-55
2021/10/13 04:05:03;;;;;;;8.90;7.97;;;9.20;99.90;;;;;;4951246;28;20565;-54
2021/10/13 04:07:29;;;;;;;10.10;7.35;;;9.30;99.90;;;;;;4951070;28;20447;-54
2021/10/13 04:09:54;;;;;;;12.30;8.30;;;9.50;99.90;;;;;;4947297;28;20202;-54
2021/10/13 04:12:20;;;;;;;10.77;7.73;;;9.40;99.90;;;;;;4946114;28;20184;-55
2021/10/13 04:14:46;;;;;;;9.73;6.90;;;9.80;99.90;;;;;;4950357;28;20403;-55
2021/10/13 04:17:12;;;;;;;9.37;7.40;;;9.30;99.90;;;;;;4951961;28;20595;-54
2021/10/13 04:19:38;;;;;;;11.13;8.23;;;9.40;99.90;;;;;;4951733;28;20555;-55
2021/10/13 04:22:04;;;;;;;10.03;7.60;;;9.30;99.90;;;;;;4953547;28;20280;-55
2021/10/13 04:24:30;;;;;;;10.40;8.80;;;9.30;99.90;;;;;;4955349;28;20263;-54
2021/10/13 04:26:55;;;;;;;10.40;8.10;;;9.20;99.90;;;;;;4954097;28;20423;-55
2021/10/13 04:29:21;;;;;;;10.07;8.33;;;9.40;99.90;;;;;;4953622;28;20535;-55
2021/10/13 04:31:47;;;;;;;10.02;7.80;;;9.40;99.90;;;;;;4946939;28;20189;-55
2021/10/13 04:34:13;;;;;;;9.93;7.83;;;9.50;99.90;;;;;;4957508;28;20187;-54
2021/10/13 04:36:39;;;;;;;8.93;7.50;;;9.20;99.90;;;;;;4955622;28;20491;-54
2021/10/13 04:39:04;;;;;;;13.00;8.73;;;9.30;99.90;;;;;;4955257;28;20671;-55
2021/10/13 04:41:30;;;;;;;11.07;8.33;;;9.40;99.90;;;;;;4948459;28;20236;-55
2021/10/13 04:43:56;;;;;;;10.50;7.28;;;9.10;99.90;;;;;;4953969;28;20190;-55
2021/10/13 04:46:22;;;;;;;9.43;8.43;;;9.10;99.90;;;;;;4952719;28;20189;-55
2021/10/13 04:48:48;;;;;;;11.33;8.40;;;9.10;99.90;;;;;;4953835;28;20962;-55
2021/10/13 04:51:13;;;;;;;10.70;8.10;;;9.30;99.90;;;;;;4957193;28;20223;-55
2021/10/13 04:53:39;;;;;;;9.50;8.00;;;9.30;99.90;;;;;;4954956;28;20192;-55
2021/10/13 04:56:04;;;;;;;10.03;8.03;;;9.40;99.90;;;;;;4952134;28;20276;-55
2021/10/13 04:58:30;;;;;;;10.90;8.90;;;9.20;99.90;;;;;;4953809;28;20217;-55
2021/10/13 05:00:56;;;;;;;14.13;9.00;;;9.40;99.90;;;;;;4951112;28;20201;-55
2021/10/13 05:03:21;;;;;;;11.23;8.17;;;9.40;99.90;;;;;;4953347;28;20201;-55
2021/10/13 05:05:47;;;;;;;11.47;8.77;;;9.20;99.90;;;;;;4954828;28;20264;-55
2021/10/13 05:08:13;;;;;;;12.63;9.97;;;9.10;99.90;;;;;;4953483;28;20254;-55
2021/10/13 05:10:38;;;;;;;12.70;8.93;;;8.90;99.90;;;;;;4944906;28;20209;-55
2021/10/13 05:13:05;;;;;;;11.30;8.57;;;9.20;99.90;;;;;;4954037;28;20659;-55
2021/10/13 05:15:31;;;;;;;10.02;7.90;;;9.10;99.90;;;;;;4944635;28;20191;-55
2021/10/13 05:17:57;;;;;;;9.15;7.72;;;9.00;99.90;;;;;;4953787;28;20651;-55
2021/10/13 05:20:23;;;;;;;9.67;7.03;;;9.20;99.90;;;;;;4953064;28;20196;-55
2021/10/13 05:22:49;;;;;;;12.07;8.60;;;8.90;99.90;;;;;;4949047;28;20805;-55
2021/10/13 05:25:14;;;;;;;9.17;8.00;;;8.80;99.90;;;;;;4950835;28;20193;-55
2021/10/13 05:27:40;;;;;;;9.17;7.57;;;8.70;99.90;;;;;;4952125;28;20619;-55
2021/10/13 05:30:06;;;;;;;12.13;8.20;;;9.10;99.90;;;;;;4950935;28;20571;-54
2021/10/13 05:32:32;;;;;;;12.65;8.55;;;9.20;99.90;;;;;;4953753;28;20520;-55
2021/10/13 05:34:58;;;;;;;7.53;6.47;;;8.90;99.90;;;;;;4949591;28;20626;-55
2021/10/13 05:37:23;;;;;;;8.10;6.60;;;8.80;99.90;;;;;;4945163;28;20688;-55
2021/10/13 05:39:49;;;;;;;9.40;6.80;;;8.90;99.90;;;;;;4947093;28;20216;-56
2021/10/13 05:42:15;;;;;;;8.23;6.67;;;8.80;99.90;;;;;;4955799;28;20492;-55
2021/10/13 05:44:40;;;;;;;7.63;5.83;;;8.80;99.90;;;;;;4954040;28;20288;-59
2021/10/13 05:47:06;;;;;;;8.50;7.10;;;8.90;99.90;;;;;;4950984;28;20240;-60
2021/10/13 05:49:33;;;;;;;8.77;6.90;;;8.90;99.90;;;;;;4949566;28;20888;-60
2021/10/13 05:51:58;;;;;;;9.05;6.30;;;9.00;99.90;;;;;;4952517;28;20195;-60
2021/10/13 05:54:24;;;;;;;8.30;6.90;;;9.00;99.90;;;;;;4945929;29;20185;-59
2021/10/13 05:56:51;;;;;;;8.40;6.87;;;8.90;99.90;;;;;;4951213;28;20192;-55
2021/10/13 05:59:18;;;;;;;12.65;8.82;;;8.80;99.90;;;;;;4948719;28;20208;-55
2021/10/13 06:01:44;;;;;;;9.27;6.78;;;8.80;99.90;;;;;;4949909;28;20197;-55
2021/10/13 06:04:10;;;;;;;10.25;8.02;;;8.90;99.90;;;;;;4953905;28;20185;-55
2021/10/13 06:06:35;;;;;;;8.60;7.00;;;8.90;99.90;;;;;;4954648;28;20688;-56
2021/10/13 06:09:01;;;;;;;9.93;8.10;;;8.90;99.90;;;;;;4948819;28;20526;-55
2021/10/13 06:11:27;;;;;;;9.73;7.67;;;9.20;99.90;;;;;;4954139;28;20188;-57
2021/10/13 06:13:53;;;;;;;9.90;7.80;;;8.90;99.90;;;;;;4947009;28;20504;-55
2021/10/13 06:16:23;;;;;;;9.50;7.70;;;8.90;99.90;;;;;;4949278;29;20188;-55
2021/10/13 06:18:50;;;;;;;9.82;7.35;;;9.10;99.90;;;;;;4952128;28;20252;-55
2021/10/13 06:21:17;;;;;;;10.73;8.18;;;9.10;99.90;;;;;;4941736;28;20283;-55
2021/10/13 06:23:43;;;;;;;11.50;8.07;;;9.10;99.90;;;;;;4951320;28;20737;-54
2021/10/13 06:26:09;;;;;;;9.83;7.80;;;9.30;99.90;;;;;;4952547;28;20275;-54
2021/10/13 06:28:36;;;;;;;11.48;8.98;;;9.20;99.90;;;;;;4948242;28;20233;-56
2021/10/13 06:31:01;;;;;;;10.67;8.97;;;9.20;99.90;;;;;;4948966;28;20193;-56
2021/10/13 06:33:27;;;;;;;11.03;9.10;;;8.80;99.90;;;;;;4956189;28;20650;-55
2021/10/13 06:35:53;;;;;;;11.50;8.50;;;9.10;99.90;;;;;;4952092;28;20189;-55
2021/10/13 06:38:19;;;;;;;10.55;8.80;;;9.20;99.90;;;;;;4951677;28;20239;-55
2021/10/13 06:40:44;;;;;;;11.97;9.30;;;9.20;99.90;;;;;;4950977;28;20197;-55
2021/10/13 06:43:11;;;;;;;14.17;9.07;;;9.30;99.90;;;;;;4944134;28;20598;-55
2021/10/13 06:45:38;;;;;;;11.50;8.73;;;9.40;99.90;;;;;;4945323;28;20244;-55
2021/10/13 06:48:05;;;;;;;12.13;8.77;;;9.40;99.90;;;;;;4953438;28;20230;-55
2021/10/13 06:50:32;;;;;;;10.50;9.13;;;9.70;99.90;;;;;;4950360;28;20561;-54
2021/10/13 06:52:58;;;;;;;10.20;8.65;;;10.00;99.90;;;;;;4950848;28;20193;-55
2021/10/13 06:55:24;;;;;;;9.50;7.17;;;9.70;99.90;;;;;;4953782;28;20276;-54
2021/10/13 06:57:49;;;;;;;9.97;7.70;;;9.40;99.90;;;;;;4952767;28;20268;-55
2021/10/13 07:00:15;;;;;;;11.90;7.67;;;9.70;99.90;;;;;;4948075;28;20212;-55
2021/10/13 07:02:41;;;;;;;7.57;6.70;;;9.90;99.90;;;;;;4950667;28;20186;-55
2021/10/13 07:05:07;;;;;;;12.33;8.23;;;9.80;99.90;;;;;;4952584;28;20200;-55
2021/10/13 07:07:32;;;;;;;10.07;7.70;;;10.20;99.90;;;;;;4951269;28;20219;-56
2021/10/13 07:09:58;;;;;;;11.00;7.70;;;9.90;99.90;;;;;;4948683;28;20725;-57
2021/10/13 07:12:24;;;;;;;9.50;7.30;;;10.10;99.90;;;;;;4950796;28;20316;-55
2021/10/13 07:14:49;;;;;;;10.93;8.23;;;9.40;99.90;;;;;;4950452;28;20197;-56
2021/10/13 07:17:16;;;;;;;10.80;7.70;;;9.80;99.90;;;;;;4946005;28;20193;-56
2021/10/13 07:19:42;;;;;;;11.32;8.52;;;9.70;99.90;;;;;;4948817;28;20272;-55
2021/10/13 07:22:08;;;;;;;8.43;6.73;;;9.90;99.90;;;;;;4952791;28;20679;-56
2021/10/13 07:24:33;;;;;;;7.80;6.20;;;9.90;99.90;;;;;;4953653;28;20212;-55
2021/10/13 07:26:59;;;;;;;8.47;6.70;;;9.90;99.90;;;;;;4949336;28;20264;-54
2021/10/13 07:29:27;;;;;;;8.63;6.97;;;9.80;99.90;;;;;;4949432;28;20197;-55
2021/10/13 07:31:53;;;;;;;7.05;6.05;;;9.70;99.90;;;;;;4949665;28;20499;-55
2021/10/13 07:34:19;;;;;;;7.72;6.28;;;9.50;99.90;;;;;;4950731;28;20235;-55
2021/10/13 07:36:45;;;;;;;8.80;6.60;;;9.60;99.90;;;;;;4954350;28;20185;-55
2021/10/13 07:39:11;;;;;;;10.83;8.20;;;9.80;99.90;;;;;;4950593;28;20618;-55
2021/10/13 07:41:37;;;;;;;9.70;8.13;;;10.10;99.90;;;;;;4944740;28;20447;-55
2021/10/13 07:44:03;;;;;;;12.40;7.60;;;10.20;99.90;;;;;;4952080;28;20448;-54
2021/10/13 07:46:28;;;;;;;10.73;7.33;;;9.80;99.90;;;;;;4946571;28;20189;-55
2021/10/13 07:48:54;;;;;;;10.23;7.33;;;10.00;99.90;;;;;;4949435;28;20468;-56
2021/10/13 07:51:20;;;;;;;9.90;7.57;;;10.40;99.90;;;;;;4947325;28;20237;-56
2021/10/13 07:53:46;;;;;;;10.27;7.43;;;10.20;99.90;;;;;;4950001;28;20185;-55
2021/10/13 07:56:11;;;;;;;12.00;7.33;;;10.70;99.90;;;;;;4952894;28;20190;-55
2021/10/13 07:58:37;;;;;;;7.43;6.57;;;10.40;99.90;;;;;;4951283;28;20263;-56
2021/10/13 08:01:02;;;;;;;11.73;7.00;;;10.40;99.90;;;;;;4945729;28;20195;-56
2021/10/13 08:03:28;;;;;;;6.40;5.70;;;10.90;99.90;;;;;;4951760;28;20188;-56
2021/10/13 08:05:54;;;;;;;9.90;6.17;;;11.20;99.90;;;;;;4957335;28;20208;-56
2021/10/13 08:08:19;;;;;;;7.20;5.70;;;11.40;99.90;;;;;;4954887;28;20229;-57
2021/10/13 08:10:45;;;;;;;7.57;6.77;;;11.30;99.90;;;;;;4950109;28;20597;-55
2021/10/13 08:13:11;;;;;;;7.40;5.60;;;11.60;99.90;;;;;;4954805;28;20192;-55
2021/10/13 08:15:37;;;;;;;7.70;6.10;;;11.80;99.90;;;;;;4953961;28;20191;-56
2021/10/13 08:18:02;;;;;;;6.50;5.80;;;11.80;99.90;;;;;;4954496;28;20195;-55
2021/10/13 08:20:28;;;;;;;8.77;6.33;;;12.10;99.90;;;;;;4956399;28;20658;-55
2021/10/13 08:22:54;;;;;;;6.73;6.00;;;12.10;99.90;;;;;;4954550;28;20212;-55
2021/10/13 08:25:20;;;;;;;8.53;6.77;;;12.50;99.90;;;;;;4951457;28;20646;-56
2021/10/13 08:27:46;;;;;;;8.50;6.05;;;12.40;99.90;;;;;;4955492;28;20211;-56
2021/10/13 08:30:12;;;;;;;12.20;6.45;;;12.90;99.90;;;;;;4952356;28;20227;-54
2021/10/13 08:32:38;;;;;;;8.05;5.80;;;13.10;99.90;;;;;;4954856;28;20188;-54
2021/10/13 08:35:06;;;;;;;9.03;6.00;;;13.20;99.90;;;;;;4958119;28;20202;-54
2021/10/13 08:37:31;;;;;;;7.57;6.57;;;13.00;99.90;;;;;;4958239;28;20208;-54
2021/10/13 08:39:57;;;;;;;7.17;6.47;;;13.00;99.90;;;;;;4953419;28;20295;-55
2021/10/13 08:42:24;;;;;;;8.23;6.83;;;12.60;99.90;;;;;;4956791;28;20276;-55
2021/10/13 08:44:52;;;;;;;9.25;7.75;;;12.50;99.90;;;;;;4951095;28;20185;-55
2021/10/13 08:47:18;;;;;;;9.00;8.02;;;12.60;99.90;;;;;;4949033;28;20307;-54
2021/10/13 08:49:45;;;;;;;12.13;8.90;;;12.80;99.90;;;;;;4950325;28;20313;-55
2021/10/13 08:52:11;;;;;;;11.45;9.00;;;12.60;99.90;;;;;;4951874;28;20471;-56
2021/10/13 08:54:38;;;;;;;12.38;9.95;;;12.40;99.90;;;;;;4949664;28;20599;-55
2021/10/13 08:57:20;;;;;;;8.52;7.70;;;12.10;99.90;;;;;;4953844;28;20232;-55
2021/10/13 08:59:48;;;;;;;11.48;8.95;;;12.50;99.90;;;;;;4949409;28;20229;-56
2021/10/13 09:02:15;;;;;;;11.27;8.88;;;12.10;99.90;;;;;;4950699;28;20189;-56
2021/10/13 09:05:04;;;;;;;12.23;9.68;;;12.20;99.90;;;;;;4954431;28;20324;-57
2021/10/13 09:07:30;;;;;;;13.90;8.93;;;12.00;99.90;;;;;;4953022;28;20223;-56
2021/10/13 09:09:56;;;;;;;14.10;9.80;;;12.40;99.90;;;;;;4952058;28;20206;-57
2021/10/13 09:12:32;;;;;;;12.47;9.20;;;12.10;99.90;;;;;;4950958;28;20197;-56
2021/10/13 09:15:08;;;;;;;11.60;9.95;;;12.10;99.90;;;;;;4948777;28;20451;-56
2021/10/13 09:17:59;;;;;;;13.13;9.40;;;11.90;99.90;;;;;;4959166;28;20247;-56
2021/10/13 09:20:28;;;;;;;12.73;8.93;;;12.20;99.90;;;;;;4954453;28;20573;-57
2021/10/13 09:23:28;;;;;;;11.60;9.05;;;12.20;99.90;;;;;;4951350;28;20205;-57
2021/10/13 09:26:01;;;;;;;12.07;8.80;;;12.40;99.90;;;;;;4947766;28;20213;-56
2021/10/13 09:28:27;;;;;;;11.07;8.00;;;12.10;99.90;;;;;;4953312;28;20306;-58
2021/10/13 09:30:53;;;;;;;11.10;9.23;;;12.00;99.90;;;;;;4951009;28;20281;-57
2021/10/13 09:33:20;;;;;;;8.17;5.57;;;12.30;99.90;;;;;;4953741;28;20497;-57
2021/10/13 09:35:47;;;;;;;7.80;5.35;;;12.30;99.90;;;;;;4947369;28;20184;-57
2021/10/13 09:38:19;;;;;;;6.50;4.07;;;11.70;99.90;;;;;;4952557;28;20208;-56
2021/10/13 09:40:46;;;;;;;4.68;3.85;;;12.20;99.90;;;;;;4946837;28;20207;-55
2021/10/13 09:43:31;;;;;;;12.88;4.13;;;12.20;99.90;;;;;;4953092;28;20187;-55
2021/10/13 09:46:09;;;;;;;6.15;4.25;;;12.20;99.90;;;;;;4945129;28;20192;-57
2021/10/13 09:48:37;;;;;;;6.30;3.83;;;12.10;99.90;;;;;;4955871;28;20225;-57
2021/10/13 09:51:15;;;;;;;5.00;3.70;;;12.30;99.90;;;;;;4952150;28;20190;-55
2021/10/13 09:53:41;;;;;;;5.75;3.30;;;12.60;99.90;;;;;;4951954;28;20203;-55
2021/10/13 09:56:43;;;;;;;4.78;3.00;;;12.70;99.90;;;;;;4958477;28;20188;-61
2021/10/13 09:59:11;;;;;;;5.00;3.80;;;13.20;99.90;;;;;;4961069;28;20211;-60
2021/10/13 10:01:37;;;;;;;7.10;3.55;;;13.00;99.90;;;;;;4950881;28;20549;-58
2021/10/13 10:04:08;;;;;;;7.43;4.55;;;13.10;99.90;;;;;;4954953;28;20676;-56
2021/10/13 10:06:35;;;;;;;8.38;5.20;;;13.10;99.90;;;;;;4946743;28;20325;-56
2021/10/13 10:09:03;;;;;;;10.52;6.68;;;12.80;99.90;;;;;;4981673;28;20209;-56
2021/10/13 10:11:37;;;;;;;10.88;5.95;;;13.00;99.90;;;;;;4950437;28;20275;-56
2021/10/13 10:14:24;;;;;;;10.07;5.75;;;13.40;99.90;;;;;;4957469;28;20681;-56
2021/10/13 10:16:50;;;;;;;8.18;4.63;;;13.60;99.90;;;;;;4942477;28;20561;-57
2021/10/13 10:19:22;;;;;;;6.53;4.87;;;13.60;99.50;;;;;;4952208;28;20209;-54
2021/10/13 10:22:06;;;;;;;8.85;5.80;;;13.70;99.60;;;;;;4953911;28;20216;-56
2021/10/13 10:24:36;;;;;;;8.40;5.05;;;13.80;99.70;;;;;;4948895;28;20189;-55
2021/10/13 10:27:27;;;;;;;7.53;6.57;;;13.70;99.90;;;;;;4951650;28;20208;-54
2021/10/13 10:30:07;;;;;;;7.97;5.07;;;13.90;99.90;;;;;;4960054;28;20299;-55
2021/10/13 10:32:34;;;;;;;7.63;4.90;;;14.20;98.20;;;;;;4954569;28;20434;-54
2021/10/13 10:35:05;;;;;;;8.48;5.65;;;14.30;99.10;;;;;;4961051;28;20188;-55
2021/10/13 10:37:48;;;;;;;10.80;5.30;;;14.10;98.50;;;;;;4949920;28;20655;-55
2021/10/13 10:40:36;;;;;;;7.97;7.18;;;13.40;99.30;;;;;;4951901;28;20633;-55
2021/10/13 10:43:23;;;;;;;5.18;4.53;;;13.70;99.30;;;;;;4950884;28;20282;-56
2021/10/13 10:45:56;;;;;;;8.75;6.55;;;14.20;97.90;;;;;;4943345;29;20267;-55
2021/10/13 10:48:25;;;;;;;8.27;6.35;;;14.00;97.70;;;;;;4951094;28;20224;-54
2021/10/13 10:50:53;;;;;;;7.60;6.78;;;14.10;97.80;;;;;;4957658;28;20177;-55
2021/10/13 10:53:29;;;;;;;8.82;6.38;;;13.90;97.60;;;;;;4950446;28;20310;-55
2021/10/13 10:56:16;;;;;;;4.57;4.03;;;13.70;97.90;;;;;;4950486;28;20199;-54
2021/10/13 10:59:15;;;;;;;7.40;4.80;;;13.90;96.80;;;;;;4940538;28;20236;-55
2021/10/13 11:02:07;;;;;;;10.30;7.95;;;13.70;97.40;;;;;;4947965;28;20188;-55
2021/10/13 11:04:42;;;;;;;10.00;7.82;;;13.20;99.90;;;;;;4950713;29;20807;-55
2021/10/13 11:07:16;;;;;;;9.48;8.13;;;13.20;99.90;;;;;;4952004;29;20218;-54
2021/10/13 11:09:42;;;;;;;9.55;7.22;;;13.20;99.90;;;;;;4951412;28;20215;-55
2021/10/13 11:12:08;;;;;;;9.17;6.27;;;13.20;99.60;;;;;;4947836;28;20192;-56
2021/10/13 11:14:34;;;;;;;9.95;6.47;;;12.90;99.60;;;;;;4943330;28;20241;-54
2021/10/13 11:17:01;;;;;;;7.67;6.47;;;13.00;99.90;;;;;;4938568;29;20280;-54
2021/10/13 11:19:30;;;;;;;5.60;4.70;;;13.10;99.70;;;;;;4951178;28;20204;-56
2021/10/13 11:22:07;;;;;;;6.13;5.53;;;13.30;98.50;;;;;;4951333;28;20211;-55
2021/10/13 11:24:35;;;;;;;6.72;5.32;;;13.60;98.30;;;;;;4949568;28;20192;-54
2021/10/13 11:27:01;;;;;;;4.90;4.35;;;13.40;98.10;;;;;;4947394;29;20236;-55
2021/10/13 11:29:30;;;;;;;4.65;4.20;;;13.40;97.80;;;;;;4953696;28;20203;-54
2021/10/13 11:32:06;;;;;;;5.30;4.80;;;13.80;97.40;;;;;;4954321;28;20192;-55
2021/10/13 11:34:33;;;;;;;5.95;3.78;;;13.70;96.00;;;;;;4957733;28;20227;-54
2021/10/13 11:36:59;;;;;;;7.30;4.82;;;13.90;96.10;;;;;;4958084;28;20192;-54
2021/10/13 11:39:31;;;;;;;7.13;4.10;;;13.80;96.00;;;;;;4955245;28;20223;-54
2021/10/13 11:41:58;;;;;;;5.95;4.65;;;13.90;96.50;;;;;;4950481;28;20471;-54
2021/10/13 11:44:26;;;;;;;6.38;4.60;;;13.40;97.90;;;;;;4959129;28;20192;-56
2021/10/13 11:47:12;;;;;;;6.28;4.78;;;13.50;98.50;;;;;;4955541;28;20278;-57
2021/10/13 11:49:59;;;;;;;6.50;4.80;;;13.60;98.60;;;;;;4956065;28;20330;-56
2021/10/13 11:52:25;;;;;;;4.82;4.05;;;13.40;99.00;;;;;;4952648;28;20191;-56
2021/10/13 11:55:19;;;;;;;4.35;3.60;;;13.40;99.70;;;;;;4957747;28;20184;-55
2021/10/13 11:58:21;;;;;;;5.00;4.55;;;13.20;99.70;;;;;;4953691;28;20827;-54
2021/10/13 12:00:47;;;;;;;7.35;4.07;;;12.70;99.90;;;;;;4957884;28;20226;-55
2021/10/13 12:03:13;;;;;;;5.55;3.95;;;12.50;99.90;;;;;;4959285;28;20190;-56
2021/10/13 12:05:41;;;;;;;2.75;2.20;;;12.80;99.90;;;;;;4959774;28;20657;-55
2021/10/13 12:08:18;;;;;;;1.70;1.60;;;12.40;98.70;;;;;;4957976;28;20213;-56
2021/10/13 12:10:50;;;;;;;2.42;2.15;;;12.90;98.10;;;;;;4952041;28;20508;-55
2021/10/13 12:13:28;;;;;;;2.95;1.90;;;12.70;97.90;;;;;;4957385;28;20591;-55
2021/10/13 12:16:02;;;;;;;2.00;1.80;;;12.90;97.10;;;;;;4960461;28;20181;-54
2021/10/13 12:18:35;;;;;;;1.50;1.40;;;13.00;97.00;;;;;;4956998;28;20299;-56
2021/10/13 12:21:03;;;;;;;1.60;1.40;;;13.20;96.90;;;;;;4943022;28;20256;-55
2021/10/13 12:23:31;;;;;;;2.15;1.30;;;13.40;96.80;;;;;;4952443;28;20188;-56
2021/10/13 12:25:58;;;;;;;1.90;1.35;;;13.50;96.80;;;;;;4952636;28;20603;-56
2021/10/13 12:28:29;;;;;;;3.90;1.45;;;13.60;96.10;;;;;;4957464;28;20223;-56
2021/10/13 12:31:04;;;;;;;1.70;1.60;;;13.40;96.40;;;;;;4955347;28;20196;-55
2021/10/13 12:34:06;;;;;;;1.60;1.50;;;13.60;95.70;;;;;;4957349;28;20231;-57
2021/10/13 12:36:43;;;;;;;2.55;1.38;;;13.80;95.70;;;;;;4945792;28;20218;-55
2021/10/13 12:39:15;;;;;;;1.70;1.40;;;13.90;94.90;;;;;;4959702;28;20844;-56
2021/10/13 12:41:43;;;;;;;2.50;1.27;;;13.90;95.00;;;;;;4948510;28;20188;-55
2021/10/13 12:44:29;;;;;;;2.10;1.30;;;13.70;94.50;;;;;;4953910;28;20189;-55
2021/10/13 12:46:59;;;;;;;2.20;2.00;;;13.40;95.60;;;;;;4954555;28;20222;-55
2021/10/13 12:49:36;;;;;;;1.50;1.40;;;13.90;95.40;;;;;;4949298;28;20287;-54
2021/10/13 12:52:05;;;;;;;1.15;1.05;;;13.80;95.80;;;;;;4944484;28;20642;-54
2021/10/13 12:54:42;;;;;;;1.30;1.20;;;14.00;96.00;;;;;;4953708;28;20193;-55
2021/10/13 12:57:16;;;;;;;1.30;1.20;;;14.20;95.80;;;;;;4954188;28;20670;-54
2021/10/13 12:59:43;;;;;;;1.35;1.10;;;14.20;94.20;;;;;;4954628;28;20259;-54
2021/10/13 13:02:09;;;;;;;1.80;1.30;;;13.70;94.40;;;;;;4955650;28;20560;-55